Callander, Canada
Current Conditions -  °F | °C
As of 11:26 AM on Friday 24 Oct 2014 (Local Time) from CYYB Reporting Station
Moderate Fog Moderate Fog  
Wind Chill: 36°   Ceiling: 100
Heat Index: 39°   Visibility: 0.25mi
Dew Point: 39°   Wind: 5mph
Humidity: 100%   Direction: 330°NNW
Pressure: 29.98"   Gusts: NA
Location:  46.22°N, 79.36°W
Report Text: CYYB 241526Z 33004KT 220V340 1/4SM R08/1400FT/N FG VV001 04/04 A2998 RMK FG8 SLP168
Loading
Personal Weather Stations






























Interactive Weather Map New forecast layout! Learn more

10-Day Weather Forecast

Advertisements
Track Severe Weather on mobile